createdAt,value
2019-04-03T00:00:53.826Z,77.74
2019-04-03T00:01:53.753Z,79.75
2019-04-03T00:02:53.677Z,82.23
2019-04-03T00:03:53.601Z,82.32
2019-04-03T00:04:53.527Z,83.00
2019-04-03T00:05:53.453Z,82.04
2019-04-03T00:06:53.453Z,81.18
2019-04-03T00:07:53.303Z,83.18
2019-04-03T00:08:53.228Z,85.29
2019-04-03T00:09:53.154Z,86.24
2019-04-03T00:10:53.078Z,85.58
2019-04-03T00:11:53.107Z,85.96
2019-04-03T00:12:52.931Z,85.58
2019-04-03T00:13:52.854Z,86.63
2019-04-03T00:14:52.778Z,87.54
2019-04-03T00:15:52.762Z,88.78
2019-04-03T00:16:52.628Z,88.20
2019-04-03T00:17:52.554Z,89.25
2019-04-03T00:18:52.561Z,90.31
2019-04-03T00:19:52.403Z,90.11
2019-04-03T00:20:52.330Z,89.59
2019-04-03T00:21:52.254Z,89.50
2019-04-03T00:22:52.494Z,89.21
2019-04-03T00:23:52.625Z,90.07
2019-04-03T00:24:52.583Z,89.88
2019-04-03T00:25:52.367Z,90.45
2019-04-03T00:26:52.847Z,90.73
2019-04-03T00:27:52.464Z,90.45
2019-04-03T00:28:52.271Z,90.36
2019-04-03T00:29:52.155Z,91.41
2019-04-03T00:30:52.968Z,91.41
2019-04-03T00:31:53.311Z,90.17
2019-04-03T00:32:53.169Z,90.83
2019-04-03T00:33:52.942Z,90.64
2019-04-03T00:34:51.797Z,91.12
2019-04-03T00:35:53.049Z,91.50
2019-04-03T00:36:52.928Z,92.55
2019-04-03T00:37:52.937Z,92.41
2019-04-03T00:38:50.977Z,91.74
2019-04-03T00:39:50.903Z,91.64
2019-04-03T00:40:50.826Z,91.46
2019-04-03T00:41:50.751Z,91.36
2019-04-03T00:42:50.674Z,91.55
2019-04-03T00:43:50.699Z,91.07
2019-04-03T00:44:50.524Z,91.46
2019-04-03T00:45:50.448Z,91.64
2019-04-03T00:46:50.373Z,90.98
2019-04-03T00:47:50.298Z,91.93
2019-04-03T00:48:50.221Z,92.50
2019-04-03T00:49:50.146Z,92.03
2019-04-03T00:50:50.071Z,92.50
2019-04-03T00:51:49.995Z,92.41
2019-04-03T00:52:49.922Z,92.50
2019-04-03T00:53:49.844Z,93.08
2019-04-03T00:54:49.769Z,92.88
2019-04-03T00:55:49.693Z,92.79
2019-04-03T00:56:49.617Z,93.08
2019-04-03T00:57:49.544Z,93.84
2019-04-03T00:58:49.466Z,94.08
2019-04-03T00:59:49.390Z,93.79
2019-04-03T01:00:49.346Z,94.08
2019-04-03T01:01:49.239Z,93.88
2019-04-03T01:02:49.269Z,94.56
2019-04-03T01:03:49.178Z,94.65
2019-04-03T01:04:49.012Z,94.93
2019-04-03T01:05:48.935Z,95.70
2019-04-03T01:06:48.860Z,95.61
2019-04-03T01:07:48.783Z,95.41
2019-04-03T01:08:48.707Z,95.79
2019-04-03T01:09:48.631Z,95.12
2019-04-03T01:10:48.556Z,95.41
2019-04-03T01:11:48.480Z,96.27
2019-04-03T01:12:48.404Z,95.70
2019-04-03T01:13:48.328Z,95.22
2019-04-03T01:14:48.434Z,94.65
2019-04-03T01:15:48.187Z,94.65
2019-04-03T01:16:48.105Z,94.74
2019-04-03T01:17:48.024Z,95.12
2019-04-03T01:18:47.949Z,95.51
2019-04-03T01:19:47.872Z,94.74
2019-04-03T01:20:47.796Z,95.32
2019-04-03T01:21:47.720Z,95.37
2019-04-03T01:22:47.644Z,94.65
2019-04-03T01:23:47.567Z,95.12
2019-04-03T01:24:47.490Z,95.08
2019-04-03T01:25:47.415Z,95.75
2019-04-03T01:26:47.340Z,95.65
2019-04-03T01:27:47.368Z,95.75
2019-04-03T01:28:47.288Z,96.17
2019-04-03T01:29:47.112Z,97.13
2019-04-03T01:30:47.036Z,96.08
2019-04-03T01:31:46.965Z,97.99
2019-04-03T01:32:47.181Z,98.27
2019-04-03T01:33:47.222Z,97.80
2019-04-03T01:34:47.698Z,97.99
2019-04-03T01:35:47.469Z,98.85
2019-04-03T01:36:48.094Z,98.85
2019-04-03T01:37:49.261Z,99.80
2019-04-03T01:38:46.429Z,98.85
2019-04-03T01:39:46.353Z,98.08
2019-04-03T01:40:46.280Z,99.13
2019-04-03T01:41:46.208Z,99.22
2019-04-03T01:42:46.138Z,99.60
2019-04-03T01:43:46.048Z,99.80
2019-04-03T01:44:45.973Z,99.51
2019-04-03T01:45:46.027Z,99.41
2019-04-03T01:46:45.846Z,99.99
2019-04-03T01:47:45.745Z,99.99
2019-04-03T01:48:45.729Z,99.99
2019-04-03T01:49:45.596Z,99.99
2019-04-03T01:50:45.518Z,99.60
2019-04-03T01:51:45.440Z,99.89
2019-04-03T01:52:45.366Z,98.94
2019-04-03T01:53:45.290Z,99.99
2019-04-03T01:54:45.214Z,99.70
2019-04-03T01:55:45.138Z,99.13
2019-04-03T01:56:45.062Z,99.99
2019-04-03T01:57:44.989Z,99.99
2019-04-03T01:58:44.909Z,99.60
2019-04-03T01:59:44.835Z,99.99
2019-04-03T02:00:44.756Z,99.99
2019-04-03T02:01:44.731Z,99.99
2019-04-03T02:02:44.607Z,99.70
2019-04-03T02:03:44.625Z,99.99
2019-04-03T02:04:44.457Z,99.99
2019-04-03T02:05:44.378Z,99.99
2019-04-03T02:06:44.403Z,99.99
2019-04-03T02:07:45.036Z,99.89
2019-04-03T02:08:44.940Z,99.99
2019-04-03T02:09:46.178Z,99.99
2019-04-03T02:10:43.996Z,97.32
2019-04-03T02:11:43.918Z,94.70
2019-04-03T02:12:44.018Z,93.74
2019-04-03T02:13:43.768Z,92.22
2019-04-03T02:14:43.690Z,92.41
2019-04-03T02:15:43.615Z,92.60
2019-04-03T02:16:43.695Z,92.55
2019-04-03T02:17:43.468Z,94.27
2019-04-03T02:18:43.388Z,94.70
2019-04-03T02:19:43.310Z,93.55
2019-04-03T02:20:43.236Z,93.65
2019-04-03T02:21:43.159Z,93.93
2019-04-03T02:22:43.083Z,95.17
2019-04-03T02:23:43.013Z,95.56
2019-04-03T02:24:42.931Z,95.65
2019-04-03T02:25:42.855Z,96.51
2019-04-03T02:26:42.869Z,95.27
2019-04-03T02:27:42.704Z,95.37
2019-04-03T02:28:42.627Z,95.08
2019-04-03T02:29:42.551Z,94.03
2019-04-03T02:30:44.772Z,95.37
2019-04-03T02:31:42.401Z,96.51
2019-04-03T02:32:42.515Z,95.65
2019-04-03T02:33:42.248Z,96.22
2019-04-03T02:34:42.173Z,96.22
2019-04-03T02:35:42.260Z,97.27
2019-04-03T02:36:44.028Z,97.37
2019-04-03T02:37:41.969Z,97.13
2019-04-03T02:38:42.041Z,96.84
2019-04-03T02:39:41.790Z,96.36
2019-04-03T02:40:41.715Z,96.84
2019-04-03T02:41:41.818Z,97.99
2019-04-03T02:42:42.482Z,97.32
2019-04-03T02:43:45.456Z,97.94
2019-04-03T02:44:41.431Z,96.89
2019-04-03T02:45:41.337Z,97.17
2019-04-03T02:46:41.259Z,97.22
2019-04-03T02:47:41.184Z,99.13
2019-04-03T02:48:41.369Z,98.65
2019-04-03T02:49:42.771Z,98.08
2019-04-03T02:50:41.079Z,97.22
2019-04-03T02:51:40.883Z,97.99
2019-04-03T02:52:40.805Z,95.37
2019-04-03T02:53:41.080Z,95.56
2019-04-03T02:54:40.657Z,94.79
2019-04-03T02:55:41.070Z,95.46
2019-04-03T02:56:40.756Z,95.65
2019-04-03T02:57:40.423Z,94.79
2019-04-03T02:58:40.346Z,94.70
2019-04-03T02:59:40.271Z,93.65
2019-04-03T03:00:40.195Z,94.03
2019-04-03T03:01:40.718Z,93.93
2019-04-03T03:02:40.044Z,92.60
2019-04-03T03:03:39.966Z,92.32
2019-04-03T03:04:39.902Z,92.50
2019-04-03T03:05:39.888Z,91.55
2019-04-03T03:06:39.741Z,91.93
2019-04-03T03:07:39.891Z,91.55
2019-04-03T03:08:41.641Z,91.55
2019-04-03T03:09:39.652Z,91.93
2019-04-03T03:10:39.432Z,92.22
2019-04-03T03:11:39.442Z,92.41
2019-04-03T03:12:39.284Z,91.55
2019-04-03T03:13:39.307Z,90.59
2019-04-03T03:14:40.304Z,90.59
2019-04-03T03:15:39.053Z,90.59
2019-04-03T03:16:38.988Z,91.88
2019-04-03T03:17:38.903Z,92.22
2019-04-03T03:18:38.867Z,91.55
2019-04-03T03:19:39.008Z,90.50
2019-04-03T03:20:40.767Z,90.41
2019-04-03T03:21:38.600Z,91.17
2019-04-03T03:22:38.889Z,92.32
2019-04-03T03:23:38.493Z,93.93
2019-04-03T03:24:38.684Z,93.27
2019-04-03T03:25:38.294Z,93.08
2019-04-03T03:26:38.223Z,92.98
2019-04-03T03:27:40.892Z,92.98
2019-04-03T03:28:38.115Z,93.84
2019-04-03T03:29:38.307Z,94.70
2019-04-03T03:30:45.511Z,94.89
2019-04-03T03:32:03.069Z,94.51
2019-04-03T03:32:38.489Z,95.08
2019-04-03T03:33:40.631Z,95.98
2019-04-03T03:34:50.859Z,95.32
2019-04-03T03:35:41.535Z,95.89
2019-04-03T03:36:37.985Z,95.22
2019-04-03T03:37:37.414Z,95.41
2019-04-03T03:38:39.380Z,96.56
2019-04-03T03:39:37.228Z,97.22
2019-04-03T03:40:37.151Z,97.61
2019-04-03T03:41:37.196Z,97.32
2019-04-03T03:42:37.109Z,96.08
2019-04-03T03:43:38.736Z,95.61
2019-04-03T03:44:37.037Z,95.98
2019-04-03T03:45:37.114Z,95.12
2019-04-03T03:46:36.698Z,95.79
2019-04-03T03:47:37.115Z,96.17
2019-04-03T03:48:36.544Z,96.27
2019-04-03T03:49:36.647Z,96.36
2019-04-03T03:50:36.403Z,97.03
2019-04-03T03:51:36.315Z,97.13
2019-04-03T03:52:37.998Z,96.36
2019-04-03T03:53:36.164Z,95.98
2019-04-03T03:54:36.088Z,96.27
2019-04-03T03:55:36.015Z,97.22
2019-04-03T03:56:35.937Z,95.98
2019-04-03T03:57:39.137Z,95.79
2019-04-03T03:58:35.783Z,96.27
2019-04-03T03:59:35.830Z,96.94
2019-04-03T04:00:35.631Z,96.84
2019-04-03T04:01:35.552Z,96.65
2019-04-03T04:02:36.714Z,96.27
2019-04-03T04:03:35.643Z,95.79
2019-04-03T04:04:35.330Z,96.08
2019-04-03T04:05:35.250Z,95.22
2019-04-03T04:06:36.558Z,96.46
2019-04-03T04:07:37.998Z,95.61
2019-04-03T04:08:35.305Z,95.51
2019-04-03T04:09:34.945Z,95.41
2019-04-03T04:10:36.289Z,95.22
2019-04-03T04:11:35.246Z,94.93
2019-04-03T04:12:39.347Z,94.17
2019-04-03T04:13:34.640Z,95.61
2019-04-03T04:14:34.565Z,96.27
2019-04-03T04:15:34.493Z,96.65
2019-04-03T04:16:37.054Z,96.56
2019-04-03T04:17:34.334Z,96.56
2019-04-03T04:18:34.259Z,96.17
2019-04-03T04:19:34.434Z,95.41
2019-04-03T04:20:36.628Z,96.17
2019-04-03T04:21:34.030Z,96.27
2019-04-03T04:22:33.974Z,96.94
2019-04-03T04:23:34.135Z,95.70
2019-04-03T04:24:33.798Z,96.08
2019-04-03T04:25:33.731Z,96.17
2019-04-03T04:26:33.850Z,96.46
2019-04-03T04:27:37.443Z,97.41
2019-04-03T04:28:33.491Z,96.94
2019-04-03T04:29:33.422Z,96.08
2019-04-03T04:30:33.540Z,96.84
2019-04-03T04:31:33.265Z,96.84
2019-04-03T04:32:33.306Z,97.80
2019-04-03T04:33:33.122Z,97.99
2019-04-03T04:34:33.032Z,97.80
2019-04-03T04:35:32.956Z,98.18
2019-04-03T04:36:32.879Z,99.41
2019-04-03T04:37:35.426Z,99.99
2019-04-03T04:38:32.726Z,99.99
2019-04-03T04:39:32.652Z,99.99
2019-04-03T04:40:32.637Z,99.99
2019-04-03T04:41:33.140Z,99.99
2019-04-03T04:42:34.419Z,99.99
2019-04-03T04:43:32.341Z,99.99
2019-04-03T04:44:32.328Z,99.99
2019-04-03T04:45:33.441Z,99.99
2019-04-03T04:46:32.113Z,99.99
2019-04-03T04:47:32.036Z,99.99
2019-04-03T04:48:31.960Z,99.99
2019-04-03T04:49:32.218Z,99.99
2019-04-03T04:50:31.808Z,99.99
2019-04-03T04:51:31.729Z,99.99
2019-04-03T04:52:32.150Z,99.99
2019-04-03T04:53:31.580Z,99.99
2019-04-03T04:54:31.687Z,99.99
2019-04-03T04:55:33.102Z,99.99
2019-04-03T04:56:31.351Z,99.99
2019-04-03T04:57:31.298Z,99.99
2019-04-03T04:58:31.196Z,99.99
2019-04-03T04:59:31.358Z,99.99
2019-04-03T05:00:31.040Z,99.99
2019-04-03T05:01:30.964Z,99.99
2019-04-03T05:02:30.887Z,99.99
2019-04-03T05:03:30.859Z,99.99
2019-04-03T05:04:30.733Z,99.99
2019-04-03T05:05:31.501Z,99.99
2019-04-03T05:06:30.580Z,99.99
2019-04-03T05:07:31.099Z,99.99
2019-04-03T05:08:30.855Z,99.99
2019-04-03T05:09:30.363Z,99.99
2019-04-03T05:10:30.273Z,99.99
2019-04-03T05:11:30.195Z,99.99
2019-04-03T05:12:30.120Z,99.99
2019-04-03T05:13:32.663Z,99.99
2019-04-03T05:14:29.997Z,99.99
2019-04-03T05:15:29.887Z,99.99
2019-04-03T05:16:32.432Z,99.99
2019-04-03T05:19:09.667Z,99.99
2019-04-03T05:20:02.175Z,99.99
2019-04-03T05:23:27.730Z,99.99
2019-04-03T05:24:28.897Z,99.99
2019-04-03T05:25:27.890Z,99.99
2019-04-03T05:26:27.499Z,99.99
2019-04-03T05:27:27.421Z,99.99
2019-04-03T05:28:27.345Z,99.99
2019-04-03T05:29:27.542Z,99.99
2019-04-03T05:30:27.189Z,99.99
2019-04-03T05:31:27.111Z,99.99
2019-04-03T05:32:27.035Z,99.99
2019-04-03T05:33:26.956Z,99.99
2019-04-03T05:34:26.882Z,99.99
2019-04-03T05:35:26.846Z,99.99
2019-04-03T05:36:27.017Z,99.99
2019-04-03T05:37:26.802Z,99.99
2019-04-03T05:38:26.598Z,99.99
2019-04-03T05:39:26.493Z,99.99
2019-04-03T05:40:27.024Z,99.99
2019-04-03T05:41:28.550Z,99.99
2019-04-03T05:42:26.960Z,99.99
2019-04-03T05:43:26.183Z,99.99
2019-04-03T05:44:26.366Z,99.99
2019-04-03T05:45:26.029Z,99.99
2019-04-03T05:46:25.951Z,99.99
2019-04-03T05:47:25.986Z,99.99
2019-04-03T05:48:25.824Z,99.99
2019-04-03T05:49:25.719Z,99.99
2019-04-03T05:50:26.445Z,99.99
2019-04-03T05:51:25.565Z,99.99
2019-04-03T05:52:25.488Z,99.99
2019-04-03T05:53:25.639Z,99.99
2019-04-03T05:54:25.448Z,99.99
2019-04-03T05:55:25.399Z,99.99
2019-04-03T05:56:25.177Z,99.99
2019-04-03T05:57:25.185Z,99.99
2019-04-03T05:58:25.302Z,99.99
2019-04-03T05:59:24.946Z,99.99
2019-04-03T06:00:24.870Z,99.99
2019-04-03T06:01:24.793Z,99.99
2019-04-03T06:02:24.712Z,99.99
2019-04-03T06:03:37.692Z,99.99
2019-04-03T06:04:24.595Z,99.99
2019-04-03T06:05:24.582Z,99.99
2019-04-03T06:06:24.404Z,99.99
2019-04-03T06:07:24.326Z,99.99
2019-04-03T06:08:24.248Z,99.99
2019-04-03T06:09:24.493Z,99.99
2019-04-03T06:10:27.090Z,99.99
2019-04-03T06:11:24.368Z,99.99
2019-04-03T06:12:24.270Z,99.99
2019-04-03T06:13:23.866Z,99.99
2019-04-03T06:14:23.978Z,99.99
2019-04-03T06:15:23.951Z,99.99
2019-04-03T06:16:24.828Z,99.99
2019-04-03T06:17:23.557Z,99.99
2019-04-03T06:18:25.758Z,99.99
2019-04-03T06:19:23.583Z,99.99
2019-04-03T06:20:23.321Z,99.99
2019-04-03T06:21:23.248Z,99.99
2019-04-03T06:22:23.166Z,99.99
2019-04-03T06:23:23.091Z,99.99
2019-04-03T06:24:24.335Z,99.99
2019-04-03T06:25:23.039Z,99.99
2019-04-03T06:26:23.401Z,99.99
2019-04-03T06:27:22.781Z,99.99
2019-04-03T06:28:22.703Z,99.99
2019-04-03T06:29:22.625Z,99.99
2019-04-03T06:30:22.912Z,99.99
2019-04-03T06:31:22.471Z,99.99
2019-04-03T06:32:24.343Z,99.99
2019-04-03T06:33:22.318Z,99.99
2019-04-03T06:34:22.248Z,99.99
2019-04-03T06:35:22.161Z,99.99
2019-04-03T06:36:22.083Z,99.99
2019-04-03T06:37:22.699Z,99.99
2019-04-03T06:38:22.497Z,99.99
2019-04-03T06:39:23.463Z,99.99
2019-04-03T06:40:21.775Z,99.99
2019-04-03T06:41:21.701Z,99.99
2019-04-03T06:42:24.302Z,99.99
2019-04-03T06:43:21.590Z,99.99
2019-04-03T06:44:22.660Z,99.99
2019-04-03T06:45:21.388Z,99.99
2019-04-03T06:46:21.311Z,99.99
2019-04-03T06:47:21.234Z,99.99
2019-04-03T06:48:21.157Z,99.99
2019-04-03T06:49:21.080Z,99.99
2019-04-03T06:50:21.002Z,99.99
2019-04-03T06:51:20.926Z,99.99
2019-04-03T06:52:21.510Z,99.99
2019-04-03T06:53:20.862Z,99.99
2019-04-03T06:54:20.936Z,99.99
2019-04-03T06:57:46.304Z,99.99
2019-04-03T06:58:46.184Z,99.99
2019-04-03T06:59:46.576Z,99.99
2019-04-03T07:00:47.312Z,99.99
2019-04-03T07:06:56.299Z,99.99
2019-04-03T07:15:59.728Z,99.99
2019-04-03T07:17:01.320Z,99.99
2019-04-03T07:18:01.349Z,99.99
2019-04-03T07:18:59.520Z,99.99
2019-04-03T07:20:12.626Z,99.99
2019-04-03T07:20:59.411Z,99.99
2019-04-03T07:21:59.261Z,99.99
2019-04-03T07:22:59.435Z,99.99
2019-04-03T07:55:38.395Z,99.99
2019-04-03T07:56:38.324Z,99.99
2019-04-03T07:57:40.939Z,99.99
2019-04-03T07:58:38.163Z,99.99
2019-04-03T07:59:38.085Z,99.99
2019-04-03T08:01:20.499Z,99.99
2019-04-03T08:02:20.417Z,99.99
2019-04-03T08:05:46.049Z,99.99
2019-04-03T08:06:45.907Z,99.99
2019-04-03T08:07:45.827Z,99.99
2019-04-03T08:08:45.752Z,99.99
2019-04-03T08:09:45.813Z,99.99
2019-04-03T08:10:45.598Z,99.99
2019-04-03T08:11:45.522Z,99.99
2019-04-03T08:12:45.497Z,99.99
2019-04-03T08:13:45.421Z,99.99
2019-04-03T08:14:45.387Z,99.99
2019-04-03T08:15:45.493Z,99.99
2019-04-03T08:16:45.890Z,99.99
2019-04-03T08:17:45.065Z,99.99
2019-04-03T08:18:44.990Z,99.99
2019-04-03T08:19:45.943Z,99.99
2019-04-03T08:20:45.112Z,99.99
2019-04-03T08:21:44.765Z,99.99
2019-04-03T08:22:44.890Z,99.99
2019-04-03T08:23:44.612Z,99.99
2019-04-03T08:24:44.536Z,99.99
2019-04-03T08:25:47.224Z,99.99
2019-04-03T08:26:44.864Z,99.99
2019-04-03T08:27:44.310Z,99.99
2019-04-03T08:28:44.543Z,99.99
2019-04-03T08:29:44.453Z,99.99
2019-04-03T08:30:44.084Z,99.99
2019-04-03T08:31:48.485Z,99.99
2019-04-03T08:32:44.054Z,99.99
2019-04-03T08:34:36.447Z,99.99
2019-04-03T08:35:36.503Z,99.99
2019-04-03T08:36:38.385Z,99.99
2019-04-03T08:37:36.124Z,99.99
2019-04-03T08:38:36.343Z,99.99
2019-04-03T08:39:36.596Z,99.99
2019-04-03T08:40:35.896Z,99.99
2019-04-03T08:41:37.714Z,99.99
2019-04-03T08:42:35.931Z,99.99
2019-04-03T08:43:35.670Z,99.99
2019-04-03T08:44:36.110Z,99.99
2019-04-03T08:45:37.840Z,99.99
2019-04-03T08:46:35.444Z,99.99
2019-04-03T08:47:37.126Z,99.99
2019-04-03T08:48:35.293Z,99.99
2019-04-03T08:49:35.218Z,99.99
2019-04-03T08:50:35.141Z,99.99
2019-04-03T08:51:35.067Z,99.99
2019-04-03T08:52:37.108Z,99.99
2019-04-03T08:53:34.916Z,99.99
2019-04-03T08:54:34.981Z,99.99
2019-04-03T08:55:34.763Z,99.99
2019-04-03T08:56:34.690Z,99.99
2019-04-03T08:57:34.624Z,99.99
2019-04-03T08:58:34.773Z,99.99
2019-04-03T08:59:34.465Z,99.99
2019-04-03T09:00:34.389Z,99.99
2019-04-03T09:01:36.615Z,99.99
2019-04-03T09:02:34.476Z,99.99
2019-04-03T09:03:34.317Z,99.99
2019-04-03T09:04:34.088Z,99.99
2019-04-03T09:05:34.113Z,99.99
2019-04-03T09:06:33.974Z,99.99
2019-04-03T09:07:33.862Z,99.99
2019-04-03T09:08:33.788Z,99.99
2019-04-03T09:09:35.188Z,99.99
2019-04-03T09:10:36.465Z,99.99
2019-04-03T09:11:34.071Z,99.99
2019-04-03T09:12:33.485Z,99.99
2019-04-03T09:13:33.480Z,99.99
2019-04-03T09:15:28.283Z,99.99
2019-04-03T09:17:08.489Z,99.42
2019-04-03T09:22:17.000Z,99.90
2019-04-03T09:23:17.025Z,99.13
2019-04-03T09:24:16.852Z,99.13
2019-04-03T09:25:16.774Z,98.94
2019-04-03T09:26:16.698Z,99.23
2019-04-03T09:27:16.624Z,99.71
2019-04-03T09:28:16.548Z,99.71
2019-04-03T09:29:16.535Z,99.42
2019-04-03T09:30:16.724Z,98.66
2019-04-03T09:31:16.824Z,99.13
2019-04-03T09:32:16.249Z,98.66
2019-04-03T09:33:16.173Z,99.52
2019-04-03T09:34:16.223Z,99.42
2019-04-03T09:35:16.149Z,99.71
2019-04-03T09:36:15.946Z,99.04
2019-04-03T09:37:18.177Z,98.75
2019-04-03T09:38:15.797Z,98.94
2019-04-03T09:39:15.889Z,98.42
2019-04-03T09:40:17.261Z,98.08
2019-04-03T09:41:17.107Z,98.71
2019-04-03T09:42:15.497Z,99.08
2019-04-03T09:43:15.746Z,98.80
2019-04-03T09:44:15.753Z,98.13
2019-04-03T09:45:15.279Z,97.85
2019-04-03T09:46:15.198Z,98.37
2019-04-03T09:47:17.747Z,98.18
2019-04-03T09:48:15.278Z,97.99
2019-04-03T09:49:15.258Z,96.66
2019-04-03T09:50:15.316Z,96.89
2019-04-03T09:51:16.055Z,96.61
2019-04-03T09:52:15.108Z,96.08
2019-04-03T09:53:14.947Z,96.08
2019-04-03T09:54:14.606Z,96.22
2019-04-03T09:55:14.532Z,96.66
2019-04-03T09:56:14.457Z,94.74
2019-04-03T09:57:14.407Z,95.03
2019-04-03T09:58:14.311Z,95.89
2019-04-03T09:59:15.858Z,96.75
2019-04-03T10:00:14.165Z,95.89
2019-04-03T10:01:17.698Z,96.13
2019-04-03T10:02:14.013Z,96.22
2019-04-03T10:03:13.940Z,96.03
2019-04-03T10:04:13.867Z,96.51
2019-04-03T10:05:14.007Z,95.75
2019-04-03T10:06:14.028Z,95.56
2019-04-03T10:07:13.646Z,95.94
2019-04-03T10:08:13.709Z,97.66
2019-04-03T10:09:13.499Z,96.80
2019-04-03T10:10:14.034Z,97.18
2019-04-03T10:11:15.190Z,95.94
2019-04-03T10:12:13.557Z,95.36
2019-04-03T10:13:13.377Z,96.89
2019-04-03T10:14:13.124Z,96.42
2019-04-03T10:15:13.055Z,96.51
2019-04-03T10:16:15.821Z,95.51
2019-04-03T10:17:12.901Z,97.18
2019-04-03T10:18:12.965Z,96.08
2019-04-03T10:19:14.543Z,95.89
2019-04-03T10:20:12.678Z,96.37
2019-04-03T10:21:12.606Z,98.08
2019-04-03T10:22:12.529Z,98.61
2019-04-03T10:23:12.453Z,98.80
2019-04-03T10:24:12.381Z,98.80
2019-04-03T10:25:12.568Z,99.99
2019-04-03T10:26:12.259Z,99.89
2019-04-03T10:27:12.587Z,99.99
2019-04-03T10:28:15.065Z,99.99
2019-04-03T10:29:12.042Z,99.99
2019-04-03T10:30:12.185Z,99.99
2019-04-03T10:31:11.852Z,99.99
2019-04-03T10:32:11.776Z,99.99
2019-04-03T10:33:11.700Z,99.99
2019-04-03T10:34:13.736Z,99.99
2019-04-03T10:35:11.550Z,99.99
2019-04-03T10:36:12.184Z,99.99
2019-04-03T10:37:13.824Z,99.99
2019-04-03T10:38:11.321Z,99.99
2019-04-03T10:39:11.283Z,99.99
2019-04-03T10:40:11.167Z,99.99
2019-04-03T10:41:11.534Z,99.99
2019-04-03T10:42:11.312Z,99.99
2019-04-03T10:43:10.939Z,99.99
2019-04-03T10:44:10.863Z,99.99
2019-04-03T10:45:11.027Z,99.99
2019-04-03T10:46:10.892Z,99.99
2019-04-03T10:47:10.636Z,99.99
2019-04-03T10:48:10.579Z,99.99
2019-04-03T10:49:13.098Z,99.99
2019-04-03T10:50:10.668Z,99.99
2019-04-03T10:51:10.704Z,99.99
2019-04-03T10:52:14.360Z,99.99
2019-04-03T10:53:12.793Z,99.99
2019-04-03T10:55:22.676Z,99.99
2019-04-03T11:16:02.398Z,98.36
2019-04-03T11:16:59.215Z,96.94
2019-04-03T11:17:59.494Z,96.46
2019-04-03T11:19:04.498Z,96.56
2019-04-03T11:19:58.978Z,97.08
2019-04-03T11:20:58.922Z,96.32
2019-04-03T11:21:58.826Z,98.61
2019-04-03T11:23:05.983Z,96.94
2019-04-03T11:23:59.218Z,96.08
2019-04-03T11:24:58.616Z,95.98
2019-04-03T11:25:58.543Z,94.07
2019-04-03T11:26:58.581Z,94.56
2019-04-03T11:27:58.382Z,93.79
2019-04-03T11:28:58.447Z,94.84
2019-04-03T11:29:58.261Z,95.56
2019-04-03T11:31:00.827Z,95.08
2019-04-03T11:31:58.078Z,93.46
2019-04-03T11:32:58.003Z,93.93
2019-04-03T11:33:58.412Z,94.36
2019-04-03T11:34:57.854Z,93.65
2019-04-03T11:35:57.849Z,94.89
2019-04-03T11:36:59.702Z,93.70
2019-04-03T11:37:57.634Z,92.45
2019-04-03T11:39:10.674Z,92.31
2019-04-03T11:40:03.769Z,92.60
2019-04-03T11:40:57.417Z,92.02
2019-04-03T11:41:57.623Z,93.74
2019-04-03T11:42:57.618Z,92.88
2019-04-03T11:43:57.523Z,92.31
2019-04-03T11:44:57.336Z,92.31
2019-04-03T11:45:57.101Z,92.83
2019-04-03T11:46:57.026Z,92.36
2019-04-03T11:47:56.921Z,92.74
2019-04-03T11:48:56.832Z,93.17
2019-04-03T11:49:56.759Z,92.98
2019-04-03T11:50:57.679Z,93.74
2019-04-03T11:51:56.614Z,93.88
2019-04-03T11:52:56.542Z,92.93
2019-04-03T11:53:56.536Z,92.46
2019-04-03T11:54:56.394Z,93.98
2019-04-03T11:55:56.390Z,93.98
2019-04-03T11:56:57.112Z,93.88
2019-04-03T11:57:56.172Z,94.65
2019-04-03T11:58:56.326Z,94.74
2019-04-03T11:59:57.104Z,94.51
2019-04-03T12:00:55.951Z,94.12
2019-04-03T12:01:55.879Z,93.79
2019-04-03T12:02:55.805Z,94.56
2019-04-03T12:03:55.730Z,94.65
2019-04-03T12:04:55.680Z,95.12
2019-04-03T12:05:58.205Z,95.51
2019-04-03T12:06:55.508Z,95.27
2019-04-03T12:07:56.669Z,95.84
2019-04-03T12:08:55.644Z,95.84
2019-04-03T12:09:55.286Z,96.22
2019-04-03T12:10:55.212Z,96.17
2019-04-03T12:11:55.549Z,96.27
2019-04-03T12:12:55.062Z,96.65
2019-04-03T12:13:55.040Z,95.70
2019-04-03T12:14:54.912Z,95.41
2019-04-03T12:15:57.706Z,95.22
2019-04-03T12:16:57.039Z,95.12
2019-04-03T12:17:54.689Z,95.12
2019-04-03T12:18:54.955Z,95.22
2019-04-03T12:19:54.538Z,94.46
2019-04-03T12:20:54.463Z,94.93
2019-04-03T12:21:54.387Z,95.03
2019-04-03T12:22:55.185Z,95.56
2019-04-03T12:23:54.363Z,95.94
2019-04-03T12:24:54.162Z,94.93
2019-04-03T12:25:54.089Z,95.84
2019-04-03T12:26:55.474Z,95.08
2019-04-03T12:27:53.938Z,95.65
2019-04-03T12:28:53.884Z,96.51
2019-04-03T12:29:54.550Z,97.08
2019-04-03T12:30:53.828Z,94.79
2019-04-03T12:31:53.752Z,94.12
2019-04-03T12:32:53.562Z,94.98
2019-04-03T12:33:59.059Z,95.27
2019-04-03T12:34:53.416Z,94.70
2019-04-03T12:35:53.339Z,95.17
2019-04-03T12:37:40.755Z,95.46
2019-04-03T12:38:40.876Z,95.84
2019-04-03T12:39:40.885Z,95.37
2019-04-03T12:40:40.529Z,95.27
2019-04-03T12:41:42.866Z,93.74
2019-04-03T12:42:40.380Z,93.93
2019-04-03T12:43:40.785Z,94.03
2019-04-03T12:44:40.232Z,94.98
2019-04-03T12:45:40.371Z,95.37
2019-04-03T12:46:41.216Z,95.08
2019-04-03T12:47:42.846Z,95.27
2019-04-03T12:48:40.094Z,95.37
2019-04-03T12:49:40.151Z,95.46
2019-04-03T12:50:40.120Z,95.12
2019-04-03T12:51:39.707Z,94.93
2019-04-03T12:52:39.775Z,95.41
2019-04-03T12:53:39.558Z,95.17
2019-04-03T12:54:39.485Z,95.46
2019-04-03T12:55:42.051Z,95.32
2019-04-03T12:56:39.332Z,95.32
2019-04-03T12:57:40.233Z,96.27
2019-04-03T12:58:39.185Z,95.22
2019-04-03T12:59:41.730Z,95.79
2019-04-03T13:00:39.197Z,95.22
2019-04-03T13:01:39.017Z,95.22
2019-04-03T13:02:39.026Z,96.46
2019-04-03T13:03:38.808Z,96.61
2019-04-03T13:04:38.734Z,95.94
2019-04-03T13:05:38.724Z,94.46
2019-04-03T13:06:40.557Z,94.93
2019-04-03T13:07:38.511Z,93.88
2019-04-03T13:08:38.546Z,93.88
2019-04-03T13:09:38.698Z,94.17
2019-04-03T13:10:42.579Z,93.98
2019-04-03T13:11:38.613Z,94.27
2019-04-03T13:12:38.142Z,94.17
2019-04-03T13:13:38.684Z,93.88
2019-04-03T13:15:25.854Z,94.70
2019-04-03T13:16:25.750Z,94.98
2019-04-03T13:17:25.813Z,93.79
2019-04-03T13:18:25.350Z,92.55
2019-04-03T13:19:25.630Z,92.84
2019-04-03T13:20:25.091Z,93.22
2019-04-03T13:22:10.261Z,93.41
2019-04-03T13:23:07.425Z,93.70
2019-04-03T13:24:07.365Z,92.83
2019-04-03T13:25:07.530Z,90.88
2019-04-03T13:26:07.411Z,89.59
2019-04-03T13:27:07.125Z,88.58
2019-04-03T13:28:07.187Z,86.66
2019-04-03T13:29:08.952Z,86.90
2019-04-03T13:30:06.904Z,83.93
2019-04-03T13:31:09.685Z,82.68
2019-04-03T13:32:06.755Z,81.97
2019-04-03T13:33:07.849Z,81.93
2019-04-03T13:34:08.246Z,85.90
2019-04-03T13:37:24.334Z,88.11
2019-04-03T13:38:23.966Z,88.07
2019-04-03T13:39:24.129Z,89.21
2019-04-03T13:40:23.791Z,89.74
2019-04-03T13:41:23.718Z,90.41
2019-04-03T13:42:23.644Z,90.69
2019-04-03T13:43:23.571Z,90.64
2019-04-03T13:44:25.957Z,91.31
2019-04-03T13:46:52.649Z,90.17
2019-04-03T13:47:51.004Z,90.22
2019-04-03T13:48:50.796Z,92.17
2019-04-03T13:49:51.171Z,92.41
2019-04-03T13:50:54.150Z,91.46
2019-04-03T13:51:50.577Z,91.74
2019-04-03T13:52:51.364Z,91.31
2019-04-03T13:53:50.969Z,92.27
2019-04-03T13:55:34.608Z,91.94
2019-04-03T13:56:32.768Z,92.32
2019-04-03T13:57:32.702Z,93.84
2019-04-03T13:58:32.847Z,94.13
2019-04-03T13:59:32.543Z,93.88
2019-04-03T14:00:33.895Z,93.12
2019-04-03T14:01:32.393Z,93.03
2019-04-03T14:02:32.324Z,92.46
2019-04-03T14:05:58.161Z,92.27
2019-04-03T14:06:57.813Z,93.12
2019-04-03T14:07:57.736Z,92.65
2019-04-03T14:08:57.662Z,93.22
2019-04-03T14:09:57.677Z,92.84
2019-04-03T14:10:58.774Z,92.17
2019-04-03T14:14:43.183Z,91.13
2019-04-03T14:19:26.159Z,92.36
2019-04-03T14:20:26.509Z,91.03
2019-04-03T14:21:27.764Z,91.74
2019-04-03T14:22:26.018Z,90.26
2019-04-03T14:23:25.908Z,90.36
2019-04-03T14:24:37.177Z,89.98
2019-04-03T14:25:31.456Z,90.36
2019-04-03T14:26:25.625Z,90.45
2019-04-03T14:27:29.477Z,90.08
2019-04-03T14:28:25.514Z,90.17
2019-04-03T14:29:25.397Z,89.79